Mid Delta Regional Airport
KGLH : now visible

Airfield :











YOU CAN JOIN US ON...

 
LOGIN :

Register | Disclaimer

   EN    FR    IT 

 









Legend :    VFR   Marginal VFR   IFR   Intensive IFR   Very Intensive IFR
Visi :
Ceiling :
>= 8 km
>= 3000ft
5 to 8 km
1000 to 3000 ft
1500m to 5 km
500 to 1000 ft
800 to 1500m
200 to 500 ft
< 800m
< 200 ft
Symbols :   Thunderstorms  Fog  Heavy snow  Heavy precipitations  Wind > 20 kt






- Airport Elevation : 131 ft
- IATA code : GLH


KGLH - Mid Delta Regional

CURRENT METAR :
  • 141353Z 21011KT 10SM CLR 20/14 A3012 RMK AO2 SLP206 T02000139

EXPIRED METARs :
  • 141253Z 21009KT 10SM CLR 19/13 A3011 RMK AO2 SLP204 T01890128
  • 141153Z 19007KT 10SM CLR 16/12 A3011 RMK AO2 SLP201 T01560117 10200 20156 53004
  • 141053Z AUTO 19007KT 10SM CLR 16/11 A3009 RMK AO2 SLP197 T01610111
  • 140953Z AUTO 19007KT 10SM CLR 17/11 A3009 RMK AO2 SLP194 T01670111

TAF KGLH
Valid from the 14 at 12:00 until the 15 at 12:00 UTC


141156Z 1412/1512 20010KT P6SM SCT150
FM141400 20014G26KT P6SM FEW050 SCT150
FM150000 18010KT P6SM FEW035
KZME FIR / North America



MET'MAP, your aeronautical weather chart ! - Copyright ORBIFLY December 2007 - Disclaimer

ORBIFLY MET'MAP TEAM :

Programming & Development : Alexandra Zaïnal
Original concept : Baudouin d'Aumeries
Technical & hardware support : Manuel Goepfert
Assistance : Marc-Olivier Méhu




SOURCES & CREDITS :

   NOAA       Earth
Advisory